Time;durP1;ratioP1;P1;durP2;ratioP2;P2;SDS_P1;SDS_P2;PMS_P1;PMS_P2;Temp;Humidity;BMP_temperature;BMP_pressure;BME280_temperature;BME280_humidity;BME280_pressure;Samples;Min_cycle;Max_cycle;Signal;HPM_P1;HPM_P2
2023/08/03 00:00:21;;;;;;;5.03;1.10;;;;;;;;;;5020735;28;20071;-79
2023/08/03 00:02:48;;;;;;;5.30;0.93;;;;;;;;;;5055573;28;20522;-79
2023/08/03 00:05:17;;;;;;;6.72;1.20;;;;;;;;;;5033635;28;20087;-79
2023/08/03 00:07:44;;;;;;;5.07;1.08;;;;;;;;;;5048940;28;20053;-79
2023/08/03 00:10:11;;;;;;;3.05;1.20;;;;;;;;;;5048337;28;20136;-79
2023/08/03 00:12:38;;;;;;;6.13;1.33;;;;;;;;;;5049210;28;20057;-79
2023/08/03 00:15:05;;;;;;;6.40;1.10;;;;;;;;;;5037616;28;20076;-78
2023/08/03 00:17:31;;;;;;;6.82;1.42;;;;;;;;;;5003017;28;20400;-79
2023/08/03 00:20:00;;;;;;;5.20;1.00;;;;;;;;;;5024320;28;20504;-78
2023/08/03 00:22:27;;;;;;;3.90;0.85;;;;;;;;;;5028984;28;21561;-78
2023/08/03 00:24:53;;;;;;;5.88;1.20;;;;;;;;;;5051684;28;20470;-79
2023/08/03 00:27:20;;;;;;;7.05;1.00;;;;;;;;;;5050711;28;20045;-79
2023/08/03 00:29:47;;;;;;;4.65;0.88;;;;;;;;;;5051267;28;20041;-79
2023/08/03 00:32:13;;;;;;;5.38;1.00;;;;;;;;;;5014242;28;20454;-78
2023/08/03 00:34:41;;;;;;;4.20;1.10;;;;;;;;;;5051794;28;20048;-77
2023/08/03 00:37:09;;;;;;;4.50;0.90;;;;;;;;;;5016805;28;20087;-77
2023/08/03 00:39:36;;;;;;;4.47;1.10;;;;;;;;;;5050508;28;20133;-79
2023/08/03 00:42:04;;;;;;;4.18;0.95;;;;;;;;;;5049367;28;20435;-79
2023/08/03 00:44:30;;;;;;;3.50;1.05;;;;;;;;;;5050327;28;20048;-80
2023/08/03 00:47:00;;;;;;;6.75;1.10;;;;;;;;;;5051293;28;20080;-79
2023/08/03 00:49:29;;;;;;;3.90;1.10;;;;;;;;;;5042708;28;20052;-77
2023/08/03 00:51:57;;;;;;;5.22;1.15;;;;;;;;;;5029678;28;20065;-77
2023/08/03 00:54:24;;;;;;;6.30;1.00;;;;;;;;;;5049443;28;20133;-77
2023/08/03 00:56:51;;;;;;;7.68;1.20;;;;;;;;;;5030085;28;20064;-77
2023/08/03 00:59:17;;;;;;;4.65;0.98;;;;;;;;;;5048744;28;20051;-77
2023/08/03 01:01:44;;;;;;;3.97;0.95;;;;;;;;;;5016430;28;20121;-79
2023/08/03 01:04:11;;;;;;;7.85;1.30;;;;;;;;;;5028162;28;20044;-76
2023/08/03 01:06:38;;;;;;;7.40;1.40;;;;;;;;;;5039054;28;20044;-78
2023/08/03 01:09:05;;;;;;;2.40;0.98;;;;;;;;;;5048088;28;20140;-79
2023/08/03 01:11:32;;;;;;;7.13;1.27;;;;;;;;;;5015887;28;20743;-76
2023/08/03 01:13:59;;;;;;;4.55;1.20;;;;;;;;;;5048575;28;20064;-77
2023/08/03 01:16:26;;;;;;;7.60;1.40;;;;;;;;;;5030464;28;20053;-78
2023/08/03 01:18:54;;;;;;;3.03;1.25;;;;;;;;;;5032631;28;20051;-78
2023/08/03 01:21:21;;;;;;;8.75;1.27;;;;;;;;;;5048921;28;20041;-78
2023/08/03 01:23:48;;;;;;;5.25;1.13;;;;;;;;;;5031904;28;20136;-77
2023/08/03 01:26:15;;;;;;;5.88;1.25;;;;;;;;;;5037971;28;20175;-80
2023/08/03 01:28:41;;;;;;;6.35;1.20;;;;;;;;;;5028181;28;20036;-78
2023/08/03 01:31:08;;;;;;;5.90;1.30;;;;;;;;;;5051680;28;20060;-79
2023/08/03 01:33:35;;;;;;;4.88;1.20;;;;;;;;;;5052245;28;20057;-79
2023/08/03 01:36:02;;;;;;;4.03;1.40;;;;;;;;;;5010336;28;20041;-77
2023/08/03 01:38:28;;;;;;;5.72;1.05;;;;;;;;;;5014797;28;20412;-77
2023/08/03 01:40:55;;;;;;;6.22;1.20;;;;;;;;;;5047231;28;20455;-80
2023/08/03 01:43:22;;;;;;;2.80;1.00;;;;;;;;;;5049343;28;20053;-78
2023/08/03 01:45:49;;;;;;;3.95;1.13;;;;;;;;;;5050083;28;20127;-77
2023/08/03 01:48:15;;;;;;;8.88;1.35;;;;;;;;;;5050903;28;20415;-79
2023/08/03 01:50:42;;;;;;;7.07;1.10;;;;;;;;;;5033547;28;20648;-79
2023/08/03 01:53:08;;;;;;;12.05;1.40;;;;;;;;;;5050946;28;20037;-79
2023/08/03 01:55:35;;;;;;;6.45;1.10;;;;;;;;;;5051269;28;20631;-80
2023/08/03 01:58:02;;;;;;;6.47;1.10;;;;;;;;;;5033891;28;20038;-79
2023/08/03 02:00:28;;;;;;;5.97;1.20;;;;;;;;;;5053141;28;20609;-79
2023/08/03 02:02:55;;;;;;;4.78;1.10;;;;;;;;;;5051370;28;20527;-79
2023/08/03 02:05:25;;;;;;;6.03;1.10;;;;;;;;;;5034007;28;20144;-79
2023/08/03 02:07:55;;;;;;;7.20;1.10;;;;;;;;;;5043410;28;20038;-78
2023/08/03 02:10:23;;;;;;;4.85;1.10;;;;;;;;;;5018630;28;20096;-77
2023/08/03 02:12:50;;;;;;;7.78;1.42;;;;;;;;;;5049915;28;20510;-78
2023/08/03 02:15:17;;;;;;;5.55;1.13;;;;;;;;;;5046158;28;20037;-78
2023/08/03 02:17:44;;;;;;;8.20;1.13;;;;;;;;;;5049970;28;20044;-79
2023/08/03 02:20:11;;;;;;;6.88;1.13;;;;;;;;;;5029386;28;20392;-78
2023/08/03 02:22:38;;;;;;;8.55;1.27;;;;;;;;;;5031449;28;20036;-78
2023/08/03 02:25:05;;;;;;;8.88;1.63;;;;;;;;;;5031330;28;20682;-78
2023/08/03 02:27:32;;;;;;;6.07;1.30;;;;;;;;;;5028759;28;20160;-78
2023/08/03 02:29:58;;;;;;;11.82;1.42;;;;;;;;;;5027069;28;20038;-79
2023/08/03 02:32:29;;;;;;;4.25;1.00;;;;;;;;;;5013277;28;20041;-78
2023/08/03 02:34:56;;;;;;;4.20;1.23;;;;;;;;;;5014053;28;20426;-78
2023/08/03 02:37:29;;;;;;;5.70;1.10;;;;;;;;;;5012043;28;20057;-79
2023/08/03 02:39:57;;;;;;;6.93;1.45;;;;;;;;;;5014788;28;20050;-79
2023/08/03 02:42:28;;;;;;;4.57;1.20;;;;;;;;;;5019453;28;20044;-79
2023/08/03 02:44:55;;;;;;;5.63;1.17;;;;;;;;;;5034592;28;20045;-78
2023/08/03 02:47:22;;;;;;;10.27;1.40;;;;;;;;;;5051249;28;20049;-79
2023/08/03 02:49:51;;;;;;;7.15;1.15;;;;;;;;;;5035705;28;20163;-78
2023/08/03 02:52:18;;;;;;;10.50;1.42;;;;;;;;;;5036365;28;20056;-78
2023/08/03 02:54:46;;;;;;;8.48;1.60;;;;;;;;;;5044005;28;20395;-77
2023/08/03 02:57:15;;;;;;;5.60;1.23;;;;;;;;;;5064053;28;20042;-79
2023/08/03 02:59:43;;;;;;;7.47;1.50;;;;;;;;;;5051953;28;20036;-79
2023/08/03 03:02:10;;;;;;;9.85;1.40;;;;;;;;;;5018314;28;20045;-77
2023/08/03 03:04:40;;;;;;;7.88;1.20;;;;;;;;;;5033355;28;20041;-79
2023/08/03 03:07:08;;;;;;;13.25;1.40;;;;;;;;;;5049904;28;20112;-77
2023/08/03 03:09:36;;;;;;;5.57;1.10;;;;;;;;;;5048252;28;20098;-79
2023/08/03 03:12:05;;;;;;;7.28;1.45;;;;;;;;;;5034498;28;20110;-79
2023/08/03 03:14:42;;;;;;;7.22;1.17;;;;;;;;;;5028236;28;20073;-78
2023/08/03 03:17:09;;;;;;;4.28;1.15;;;;;;;;;;5047753;28;20132;-78
2023/08/03 03:19:38;;;;;;;4.55;1.02;;;;;;;;;;5015222;28;20510;-80
2023/08/03 03:22:07;;;;;;;6.55;1.13;;;;;;;;;;5019180;28;20049;-78
2023/08/03 03:24:33;;;;;;;5.97;1.30;;;;;;;;;;5031033;28;20053;-79
2023/08/03 03:27:01;;;;;;;7.38;1.17;;;;;;;;;;5022970;28;20041;-78
2023/08/03 03:29:28;;;;;;;5.43;1.20;;;;;;;;;;5029063;28;20055;-78
2023/08/03 03:31:55;;;;;;;5.80;0.90;;;;;;;;;;5027202;28;20551;-77
2023/08/03 03:34:24;;;;;;;6.63;1.33;;;;;;;;;;5028366;28;20609;-79
2023/08/03 03:36:51;;;;;;;10.88;1.40;;;;;;;;;;5028399;28;20120;-78
2023/08/03 03:39:18;;;;;;;8.40;1.30;;;;;;;;;;5027972;28;20033;-79
2023/08/03 03:41:45;;;;;;;4.60;1.52;;;;;;;;;;5025171;28;20050;-79
2023/08/03 03:44:14;;;;;;;9.85;1.75;;;;;;;;;;5027552;28;20141;-80
2023/08/03 03:46:41;;;;;;;7.60;1.10;;;;;;;;;;5018284;28;20053;-79
2023/08/03 03:49:08;;;;;;;8.93;1.50;;;;;;;;;;5010244;28;20050;-79
2023/08/03 03:51:36;;;;;;;9.35;1.25;;;;;;;;;;5011048;28;20105;-77
2023/08/03 03:54:03;;;;;;;7.75;1.10;;;;;;;;;;5003852;28;20046;-79
2023/08/03 03:56:31;;;;;;;5.65;1.10;;;;;;;;;;5007765;28;20125;-79
2023/08/03 03:58:58;;;;;;;6.72;1.33;;;;;;;;;;5013889;28;20033;-78
2023/08/03 04:01:26;;;;;;;7.35;1.30;;;;;;;;;;5028525;28;20373;-80
2023/08/03 04:03:53;;;;;;;8.52;1.20;;;;;;;;;;5049456;28;20064;-78
2023/08/03 04:06:20;;;;;;;5.93;1.05;;;;;;;;;;5029913;28;20055;-79
2023/08/03 04:08:47;;;;;;;4.18;0.80;;;;;;;;;;5048121;28;20063;-79
2023/08/03 04:11:13;;;;;;;12.40;1.25;;;;;;;;;;5030018;28;20045;-79
2023/08/03 04:13:40;;;;;;;6.97;1.35;;;;;;;;;;5044444;28;20527;-79
2023/08/03 04:16:07;;;;;;;4.40;1.17;;;;;;;;;;5028843;28;20044;-80
2023/08/03 04:18:35;;;;;;;6.78;1.23;;;;;;;;;;5030128;28;20037;-78
2023/08/03 04:21:02;;;;;;;8.07;1.00;;;;;;;;;;5048563;28;20064;-79
2023/08/03 04:23:29;;;;;;;5.45;1.40;;;;;;;;;;5028293;28;20128;-80
2023/08/03 04:25:56;;;;;;;7.47;1.20;;;;;;;;;;5025246;28;20041;-79
2023/08/03 04:28:25;;;;;;;4.20;0.93;;;;;;;;;;5027044;28;20037;-79
2023/08/03 04:30:51;;;;;;;4.72;1.17;;;;;;;;;;5032429;28;20123;-80
2023/08/03 04:33:18;;;;;;;6.88;1.10;;;;;;;;;;5029775;28;20068;-79
2023/08/03 04:35:50;;;;;;;7.93;1.10;;;;;;;;;;5048610;28;20045;-79
2023/08/03 04:38:24;;;;;;;8.60;1.50;;;;;;;;;;5014536;28;20045;-80
2023/08/03 04:41:02;;;;;;;3.50;1.10;;;;;;;;;;5031751;28;20049;-80
2023/08/03 04:43:32;;;;;;;5.88;1.10;;;;;;;;;;5030445;28;20055;-80
2023/08/03 04:45:59;;;;;;;8.15;1.10;;;;;;;;;;5028261;28;20056;-80
2023/08/03 04:48:26;;;;;;;5.90;1.00;;;;;;;;;;5030651;28;20122;-79
2023/08/03 04:50:54;;;;;;;4.93;1.10;;;;;;;;;;5027996;28;20171;-80
2023/08/03 04:53:23;;;;;;;6.30;1.20;;;;;;;;;;5028958;28;20072;-78
2023/08/03 04:55:50;;;;;;;8.73;1.20;;;;;;;;;;5027825;28;20041;-78
2023/08/03 04:58:16;;;;;;;3.80;0.93;;;;;;;;;;5019465;28;20535;-79
2023/08/03 05:00:47;;;;;;;4.10;1.20;;;;;;;;;;5009149;28;20356;-78
2023/08/03 05:03:13;;;;;;;5.78;1.27;;;;;;;;;;5022769;28;20051;-80
2023/08/03 05:05:41;;;;;;;5.13;1.48;;;;;;;;;;5024695;28;20486;-80
2023/08/03 05:08:11;;;;;;;5.38;0.93;;;;;;;;;;5025206;28;20048;-79
2023/08/03 05:10:38;;;;;;;3.45;1.00;;;;;;;;;;5022824;28;20049;-79
2023/08/03 05:13:05;;;;;;;4.68;0.88;;;;;;;;;;5033658;28;20045;-79
2023/08/03 05:15:31;;;;;;;9.90;1.30;;;;;;;;;;5023502;28;20052;-80
2023/08/03 05:18:01;;;;;;;7.53;1.10;;;;;;;;;;5018976;28;20064;-78
2023/08/03 05:20:28;;;;;;;4.60;1.02;;;;;;;;;;5038902;28;20136;-80
2023/08/03 05:22:54;;;;;;;5.78;1.10;;;;;;;;;;5008759;28;20118;-77
2023/08/03 05:25:21;;;;;;;11.48;1.00;;;;;;;;;;5045555;28;20037;-78
2023/08/03 05:27:47;;;;;;;6.53;1.10;;;;;;;;;;5015703;28;20049;-77
2023/08/03 05:30:14;;;;;;;6.68;0.90;;;;;;;;;;5018078;28;20120;-78
2023/08/03 05:32:43;;;;;;;5.55;1.10;;;;;;;;;;5021453;28;20057;-78
2023/08/03 05:35:22;;;;;;;4.43;1.00;;;;;;;;;;5037738;28;20102;-78
2023/08/03 05:37:53;;;;;;;8.05;1.10;;;;;;;;;;5040154;28;20041;-79
2023/08/03 05:40:20;;;;;;;8.38;0.85;;;;;;;;;;5025246;28;20069;-79
2023/08/03 05:42:47;;;;;;;2.70;0.65;;;;;;;;;;5023954;28;20061;-78
2023/08/03 05:45:14;;;;;;;4.13;0.82;;;;;;;;;;5008761;28;20077;-79
2023/08/03 05:47:40;;;;;;;3.55;0.93;;;;;;;;;;5012036;28;20111;-78
2023/08/03 05:50:12;;;;;;;6.43;1.17;;;;;;;;;;5050167;28;20131;-76
2023/08/03 05:52:39;;;;;;;5.07;0.98;;;;;;;;;;5032653;28;20223;-79
2023/08/03 05:55:09;;;;;;;3.92;0.95;;;;;;;;;;5034814;28;20110;-78
2023/08/03 05:57:36;;;;;;;3.92;0.90;;;;;;;;;;5034423;28;20087;-78
2023/08/03 06:00:04;;;;;;;3.92;0.80;;;;;;;;;;5035655;28;20044;-79
2023/08/03 06:02:40;;;;;;;8.25;0.77;;;;;;;;;;5054651;28;20040;-79
2023/08/03 06:05:27;;;;;;;7.32;0.95;;;;;;;;;;5054163;28;20049;-79
2023/08/03 06:07:54;;;;;;;7.18;0.95;;;;;;;;;;5053931;28;20059;-78
2023/08/03 06:10:21;;;;;;;7.15;0.77;;;;;;;;;;5059502;28;20107;-80
2023/08/03 06:12:47;;;;;;;8.98;1.42;;;;;;;;;;5040700;28;20064;-77
2023/08/03 06:15:15;;;;;;;5.68;1.20;;;;;;;;;;5043764;28;20049;-80
2023/08/03 06:17:42;;;;;;;1.52;0.43;;;;;;;;;;5052032;28;20045;-79
2023/08/03 06:20:12;;;;;;;4.05;0.93;;;;;;;;;;5072393;28;20049;-78
2023/08/03 06:22:38;;;;;;;2.25;0.50;;;;;;;;;;5058443;28;20052;-78
2023/08/03 06:25:08;;;;;;;1.95;0.50;;;;;;;;;;5035054;28;20048;-78
2023/08/03 06:27:35;;;;;;;5.28;0.68;;;;;;;;;;5053453;28;20060;-79
2023/08/03 06:30:03;;;;;;;8.25;1.00;;;;;;;;;;5036983;28;20152;-77
2023/08/03 06:32:31;;;;;;;4.63;1.00;;;;;;;;;;5056000;28;20049;-78
2023/08/03 06:34:59;;;;;;;2.45;0.40;;;;;;;;;;5057945;28;20121;-80
2023/08/03 06:37:27;;;;;;;3.17;0.60;;;;;;;;;;5054787;28;20059;-79
2023/08/03 06:39:54;;;;;;;2.97;0.82;;;;;;;;;;5046969;28;20413;-78
2023/08/03 06:42:21;;;;;;;7.82;0.70;;;;;;;;;;5051841;28;20064;-80
2023/08/03 06:44:47;;;;;;;5.55;0.80;;;;;;;;;;5053636;28;20124;-79
2023/08/03 06:47:14;;;;;;;5.03;0.70;;;;;;;;;;5048971;28;20037;-78
2023/08/03 06:49:40;;;;;;;5.90;0.70;;;;;;;;;;5051402;28;20041;-77
2023/08/03 06:52:07;;;;;;;4.70;0.68;;;;;;;;;;5049102;28;20060;-78
2023/08/03 06:54:34;;;;;;;3.88;0.80;;;;;;;;;;5048545;28;20457;-79
2023/08/03 06:57:00;;;;;;;5.07;0.70;;;;;;;;;;5045125;28;20479;-79
2023/08/03 06:59:27;;;;;;;4.00;0.80;;;;;;;;;;5049327;28;20060;-78
2023/08/03 07:01:53;;;;;;;4.15;0.80;;;;;;;;;;5050345;28;20458;-79
2023/08/03 07:04:20;;;;;;;3.50;0.70;;;;;;;;;;5031426;28;20045;-78
2023/08/03 07:06:47;;;;;;;6.72;1.10;;;;;;;;;;5049641;28;20033;-77
2023/08/03 07:09:13;;;;;;;6.03;1.00;;;;;;;;;;5028761;28;20048;-79
2023/08/03 07:11:40;;;;;;;6.35;1.13;;;;;;;;;;5048674;28;20041;-79
2023/08/03 07:14:08;;;;;;;4.50;0.95;;;;;;;;;;5050092;28;20128;-79
2023/08/03 07:16:36;;;;;;;2.72;0.88;;;;;;;;;;5050391;28;20037;-78
2023/08/03 07:19:06;;;;;;;4.35;0.70;;;;;;;;;;5050604;28;20107;-80
2023/08/03 07:21:33;;;;;;;3.67;1.00;;;;;;;;;;5023122;28;20053;-77
2023/08/03 07:23:59;;;;;;;3.58;1.30;;;;;;;;;;5001700;28;20069;-79
2023/08/03 07:26:26;;;;;;;4.68;0.70;;;;;;;;;;4991547;28;20049;-80
2023/08/03 07:28:53;;;;;;;5.50;0.90;;;;;;;;;;5042416;28;20136;-78
2023/08/03 07:31:19;;;;;;;3.30;0.70;;;;;;;;;;5030953;28;20049;-80
2023/08/03 07:33:46;;;;;;;4.68;0.80;;;;;;;;;;5029965;28;20389;-80
2023/08/03 07:36:19;;;;;;;4.55;0.90;;;;;;;;;;5050064;28;20044;-79
2023/08/03 07:38:46;;;;;;;6.35;0.85;;;;;;;;;;5047753;28;20072;-77
2023/08/03 07:41:13;;;;;;;2.80;0.90;;;;;;;;;;5048233;28;20044;-79
2023/08/03 07:43:39;;;;;;;5.13;0.68;;;;;;;;;;5026261;28;20037;-79
2023/08/03 07:46:06;;;;;;;2.88;0.70;;;;;;;;;;5051873;28;20045;-78
2023/08/03 07:48:32;;;;;;;4.53;0.80;;;;;;;;;;5049828;28;20045;-79
2023/08/03 07:50:59;;;;;;;7.95;0.80;;;;;;;;;;5051166;28;20071;-79
2023/08/03 07:53:26;;;;;;;2.97;0.93;;;;;;;;;;5050121;28;20068;-79
2023/08/03 07:55:52;;;;;;;3.72;0.60;;;;;;;;;;5049189;28;20395;-79
2023/08/03 07:58:19;;;;;;;3.58;0.50;;;;;;;;;;5029057;28;20045;-79
2023/08/03 08:00:46;;;;;;;7.45;0.88;;;;;;;;;;5049596;28;20041;-79
2023/08/03 08:03:13;;;;;;;2.65;0.60;;;;;;;;;;5048890;28;20071;-79
2023/08/03 08:05:39;;;;;;;5.93;0.60;;;;;;;;;;5049735;28;20045;-78
2023/08/03 08:08:06;;;;;;;5.68;0.65;;;;;;;;;;5049436;28;20041;-78
2023/08/03 08:10:33;;;;;;;5.38;0.70;;;;;;;;;;5046514;28;20124;-79
2023/08/03 08:12:59;;;;;;;7.20;0.82;;;;;;;;;;5047570;28;20060;-79
2023/08/03 08:15:27;;;;;;;3.90;0.77;;;;;;;;;;5029501;28;20052;-80
2023/08/03 08:17:54;;;;;;;4.80;1.00;;;;;;;;;;5049221;28;20061;-80
2023/08/03 08:20:21;;;;;;;4.05;0.70;;;;;;;;;;5047850;28;20108;-80
2023/08/03 08:22:47;;;;;;;5.63;0.82;;;;;;;;;;5050071;28;20570;-80
2023/08/03 08:25:14;;;;;;;2.40;0.60;;;;;;;;;;5045509;28;20051;-79
2023/08/03 08:27:41;;;;;;;6.00;0.73;;;;;;;;;;5059824;28;20045;-80
2023/08/03 08:30:08;;;;;;;5.25;0.90;;;;;;;;;;5061632;28;20045;-78
2023/08/03 08:32:35;;;;;;;1.80;0.45;;;;;;;;;;5060097;28;20075;-78
2023/08/03 08:35:02;;;;;;;5.60;0.70;;;;;;;;;;5043282;28;20051;-79
2023/08/03 08:37:29;;;;;;;2.28;0.47;;;;;;;;;;5032877;28;20091;-80
2023/08/03 08:39:56;;;;;;;3.80;0.47;;;;;;;;;;5027159;28;20042;-79
2023/08/03 08:42:24;;;;;;;3.22;0.55;;;;;;;;;;5028754;28;20057;-79
2023/08/03 08:44:51;;;;;;;1.77;0.45;;;;;;;;;;5048275;28;20094;-79
2023/08/03 08:47:17;;;;;;;3.17;0.60;;;;;;;;;;5027567;28;20037;-78
2023/08/03 08:49:44;;;;;;;1.42;0.43;;;;;;;;;;5027981;28;20045;-77
2023/08/03 08:52:14;;;;;;;1.88;0.50;;;;;;;;;;5020997;28;20073;-80
2023/08/03 08:54:41;;;;;;;2.55;0.63;;;;;;;;;;5022336;28;20052;-80
2023/08/03 08:57:10;;;;;;;3.33;0.50;;;;;;;;;;5019425;28;20046;-79
2023/08/03 08:59:58;;;;;;;3.75;0.50;;;;;;;;;;5042505;28;20051;-80
2023/08/03 09:02:25;;;;;;;3.90;0.50;;;;;;;;;;5013004;28;20042;-80
2023/08/03 09:04:52;;;;;;;2.47;0.45;;;;;;;;;;5017902;28;20515;-79
2023/08/03 09:07:19;;;;;;;2.40;0.50;;;;;;;;;;5021789;28;20041;-79
2023/08/03 09:09:46;;;;;;;3.13;0.35;;;;;;;;;;5018237;28;20499;-79
2023/08/03 09:12:25;;;;;;;4.07;0.40;;;;;;;;;;5043200;28;20048;-78
2023/08/03 09:14:52;;;;;;;1.67;0.40;;;;;;;;;;5017352;28;20045;-81
2023/08/03 09:17:20;;;;;;;4.90;0.30;;;;;;;;;;5022787;28;20124;-79
2023/08/03 09:19:47;;;;;;;2.72;0.50;;;;;;;;;;5023034;28;20041;-79
2023/08/03 09:22:23;;;;;;;1.05;0.30;;;;;;;;;;5023257;28;20037;-79
2023/08/03 09:25:19;;;;;;;2.63;0.50;;;;;;;;;;5038030;28;20103;-78
2023/08/03 09:28:01;;;;;;;2.40;0.40;;;;;;;;;;5022673;28;20061;-80
2023/08/03 09:30:49;;;;;;;3.25;0.20;;;;;;;;;;5050345;28;20107;-80
2023/08/03 09:33:18;;;;;;;1.70;0.30;;;;;;;;;;5047158;28;20055;-79
2023/08/03 09:36:00;;;;;;;1.58;0.47;;;;;;;;;;5033761;28;20315;-78
2023/08/03 09:38:27;;;;;;;1.85;0.30;;;;;;;;;;5022827;28;20105;-79
2023/08/03 09:40:53;;;;;;;1.77;0.40;;;;;;;;;;5035060;28;20522;-80
2023/08/03 09:43:22;;;;;;;0.93;0.40;;;;;;;;;;5041105;28;20040;-78
2023/08/03 09:45:52;;;;;;;0.80;0.40;;;;;;;;;;5043914;28;20048;-79
2023/08/03 09:48:19;;;;;;;2.35;0.30;;;;;;;;;;5048082;28;20447;-79
2023/08/03 09:50:50;;;;;;;2.95;0.43;;;;;;;;;;5048414;28;20063;-79
2023/08/03 09:53:19;;;;;;;1.65;0.38;;;;;;;;;;5027367;28;20049;-78
2023/08/03 09:55:47;;;;;;;4.05;0.63;;;;;;;;;;5045697;28;20056;-80
2023/08/03 09:58:15;;;;;;;1.38;0.35;;;;;;;;;;5028159;28;20068;-80
2023/08/03 10:00:43;;;;;;;2.78;0.60;;;;;;;;;;5043531;28;20063;-79
2023/08/03 10:03:14;;;;;;;2.00;0.40;;;;;;;;;;5047125;28;20044;-79
2023/08/03 10:05:48;;;;;;;2.50;0.28;;;;;;;;;;5047741;28;20399;-79
2023/08/03 10:08:24;;;;;;;2.17;0.40;;;;;;;;;;5044783;28;20033;-80
2023/08/03 10:10:52;;;;;;;;;;;;;;;;;;5018218;28;20095;-80
2023/08/03 10:13:18;;;;;;;0.57;0.20;;;;;;;;;;5024596;28;19939;-79
2023/08/03 10:15:46;;;;;;;5.15;0.50;;;;;;;;;;5027143;28;20527;-80
2023/08/03 10:18:13;;;;;;;2.60;0.43;;;;;;;;;;5036166;28;20338;-79
2023/08/03 10:20:40;;;;;;;4.35;0.55;;;;;;;;;;5030191;28;20491;-79
2023/08/03 10:23:15;;;;;;;3.10;0.50;;;;;;;;;;5046954;28;20518;-80
2023/08/03 10:25:57;;;;;;;2.42;0.65;;;;;;;;;;5049479;28;20056;-79
2023/08/03 10:28:43;;;;;;;2.17;0.50;;;;;;;;;;5004722;28;20052;-79
2023/08/03 10:31:11;;;;;;;;;;;;;;;;;;5025273;28;20456;-78
2023/08/03 10:33:48;;;;;;;1.95;0.50;;;;;;;;;;5030017;28;20009;-79
2023/08/03 10:36:47;;;;;;;2.30;0.40;;;;;;;;;;5018869;28;20385;-80
2023/08/03 10:39:16;;;;;;;3.83;0.50;;;;;;;;;;5014741;28;20495;-79
2023/08/03 10:41:49;;;;;;;2.13;0.65;;;;;;;;;;5047204;28;20049;-82
2023/08/03 10:44:20;;;;;;;0.57;0.28;;;;;;;;;;5034208;28;20051;-79
2023/08/03 10:46:49;;;;;;;2.75;0.82;;;;;;;;;;5056032;28;21066;-79
2023/08/03 10:49:20;;;;;;;3.60;0.73;;;;;;;;;;5054644;28;20465;-79
2023/08/03 10:52:13;;;;;;;2.13;0.50;;;;;;;;;;5033186;28;20188;-79
2023/08/03 10:54:40;;;;;;;1.60;0.40;;;;;;;;;;5044340;28;20102;-79
2023/08/03 10:57:13;;;;;;;1.85;0.40;;;;;;;;;;5048178;28;20049;-79
2023/08/03 10:59:48;;;;;;;2.88;0.60;;;;;;;;;;5051364;28;20037;-79
2023/08/03 11:02:20;;;;;;;1.35;0.40;;;;;;;;;;5050425;28;20045;-82
2023/08/03 11:04:50;;;;;;;2.08;0.40;;;;;;;;;;5045548;28;20525;-80
2023/08/03 11:07:21;;;;;;;1.23;0.43;;;;;;;;;;5015440;28;20055;-80
2023/08/03 11:09:48;;;;;;;3.92;0.43;;;;;;;;;;5049423;28;20055;-79
2023/08/03 11:12:18;;;;;;;1.38;0.40;;;;;;;;;;5047913;28;20048;-80
2023/08/03 11:14:46;;;;;;;4.65;1.38;;;;;;;;;;5050905;28;20041;-79
2023/08/03 11:17:15;;;;;;;1.65;0.40;;;;;;;;;;5049116;28;20057;-78
2023/08/03 11:19:42;;;;;;;2.17;0.30;;;;;;;;;;5049119;28;20057;-81
2023/08/03 11:22:11;;;;;;;1.73;0.40;;;;;;;;;;5031097;28;20049;-80
2023/08/03 11:24:38;;;;;;;2.05;0.40;;;;;;;;;;5049207;28;20107;-79
2023/08/03 11:27:05;;;;;;;2.83;0.40;;;;;;;;;;5047395;28;20052;-82
2023/08/03 11:29:34;;;;;;;4.35;0.30;;;;;;;;;;5049913;28;20140;-79
2023/08/03 11:32:01;;;;;;;2.13;0.40;;;;;;;;;;5049801;28;20057;-80
2023/08/03 11:34:27;;;;;;;1.65;0.25;;;;;;;;;;5020510;28;20133;-79
2023/08/03 11:36:54;;;;;;;1.60;0.25;;;;;;;;;;5013538;28;20309;-80
2023/08/03 11:39:21;;;;;;;2.40;0.40;;;;;;;;;;5029376;28;20500;-79
2023/08/03 11:41:48;;;;;;;3.67;0.40;;;;;;;;;;5047089;28;20064;-79
2023/08/03 11:44:15;;;;;;;1.45;0.50;;;;;;;;;;5028332;28;20041;-79
2023/08/03 11:46:41;;;;;;;2.78;0.30;;;;;;;;;;5049470;28;20056;-80
2023/08/03 11:49:12;;;;;;;1.90;0.30;;;;;;;;;;5031456;28;20506;-79
2023/08/03 11:51:39;;;;;;;3.75;0.30;;;;;;;;;;5048156;28;20065;-79
2023/08/03 11:54:07;;;;;;;3.03;0.43;;;;;;;;;;5058138;28;20048;-79
2023/08/03 11:56:34;;;;;;;1.50;0.30;;;;;;;;;;5054442;28;20044;-79
2023/08/03 11:59:10;;;;;;;1.73;0.47;;;;;;;;;;5053851;28;20119;-80
2023/08/03 12:01:44;;;;;;;0.93;0.32;;;;;;;;;;5055305;28;20458;-79
2023/08/03 12:04:11;;;;;;;3.05;0.25;;;;;;;;;;5031398;28;20128;-79
2023/08/03 12:06:46;;;;;;;1.42;0.50;;;;;;;;;;5030925;28;20049;-79
2023/08/03 12:09:21;;;;;;;2.97;0.30;;;;;;;;;;5046622;28;20049;-79
2023/08/03 12:11:48;;;;;;;0.73;0.30;;;;;;;;;;5046523;28;20063;-79
2023/08/03 12:14:15;;;;;;;1.70;0.40;;;;;;;;;;5029685;28;20045;-80
2023/08/03 12:16:42;;;;;;;0.73;0.30;;;;;;;;;;5045366;28;20055;-80
2023/08/03 12:19:09;;;;;;;0.40;0.30;;;;;;;;;;5049704;28;20102;-80
2023/08/03 12:21:38;;;;;;;3.42;0.30;;;;;;;;;;5031048;28;20045;-80
2023/08/03 12:24:06;;;;;;;1.77;0.38;;;;;;;;;;5049388;28;20052;-81
2023/08/03 12:26:36;;;;;;;0.77;0.30;;;;;;;;;;5024184;28;20057;-81
2023/08/03 12:29:03;;;;;;;1.17;0.40;;;;;;;;;;5026858;28;20061;-79
2023/08/03 12:31:34;;;;;;;1.13;0.30;;;;;;;;;;5030320;28;20045;-78
2023/08/03 12:34:01;;;;;;;1.48;0.50;;;;;;;;;;5048939;28;20065;-78
2023/08/03 12:36:28;;;;;;;0.82;0.30;;;;;;;;;;5046847;28;20366;-79
2023/08/03 12:38:54;;;;;;;0.50;0.20;;;;;;;;;;5031452;28;20052;-78
2023/08/03 12:41:22;;;;;;;0.70;0.25;;;;;;;;;;5027965;28;20562;-79
2023/08/03 12:43:49;;;;;;;1.27;0.40;;;;;;;;;;5051821;28;20194;-80
2023/08/03 12:46:16;;;;;;;3.22;0.50;;;;;;;;;;5051956;28;20151;-80
2023/08/03 12:48:44;;;;;;;0.95;0.20;;;;;;;;;;5022618;28;20041;-79
2023/08/03 12:51:10;;;;;;;6.40;0.50;;;;;;;;;;5045564;28;20045;-80
2023/08/03 12:53:37;;;;;;;0.60;0.30;;;;;;;;;;5045370;28;20500;-80
2023/08/03 12:56:06;;;;;;;5.97;1.13;;;;;;;;;;5043160;28;20048;-79
2023/08/03 12:58:33;;;;;;;1.05;0.30;;;;;;;;;;5027605;28;20037;-79
2023/08/03 13:01:00;;;;;;;0.80;0.32;;;;;;;;;;5045530;28;20072;-78
2023/08/03 13:03:26;;;;;;;1.13;0.40;;;;;;;;;;5045191;28;20166;-79
2023/08/03 13:05:54;;;;;;;2.55;0.40;;;;;;;;;;5044531;28;20049;-79
2023/08/03 13:08:22;;;;;;;0.95;0.30;;;;;;;;;;5026953;28;20048;-79
2023/08/03 13:10:48;;;;;;;1.35;0.40;;;;;;;;;;5045669;28;20040;-79
2023/08/03 13:13:18;;;;;;;1.38;0.30;;;;;;;;;;5045190;28;20044;-78
2023/08/03 13:15:46;;;;;;;0.88;0.28;;;;;;;;;;5004108;28;20504;-80
2023/08/03 13:18:13;;;;;;;2.88;0.40;;;;;;;;;;5029076;28;20056;-79
2023/08/03 13:20:40;;;;;;;2.30;0.40;;;;;;;;;;5030216;28;20037;-79
2023/08/03 13:23:07;;;;;;;1.50;0.35;;;;;;;;;;5026611;28;20099;-79
2023/08/03 13:25:34;;;;;;;1.08;0.22;;;;;;;;;;5028123;28;20177;-79
2023/08/03 13:28:05;;;;;;;1.48;0.52;;;;;;;;;;5045706;28;20041;-79
2023/08/03 13:30:32;;;;;;;2.30;0.50;;;;;;;;;;5029602;28;20049;-79
2023/08/03 13:32:59;;;;;;;1.63;0.40;;;;;;;;;;5028485;28;20054;-78
2023/08/03 13:35:25;;;;;;;0.50;0.20;;;;;;;;;;5048404;28;20041;-79
2023/08/03 13:37:52;;;;;;;1.05;0.30;;;;;;;;;;5046810;28;20071;-78
2023/08/03 13:40:19;;;;;;;2.08;0.30;;;;;;;;;;5045885;28;20041;-79
2023/08/03 13:42:45;;;;;;;3.28;0.32;;;;;;;;;;5047388;28;20147;-79
2023/08/03 13:45:12;;;;;;;2.17;0.50;;;;;;;;;;5030396;28;20133;-80
2023/08/03 13:47:40;;;;;;;2.45;0.30;;;;;;;;;;5030308;28;20049;-78
2023/08/03 13:50:07;;;;;;;0.68;0.22;;;;;;;;;;5048905;28;20131;-80
2023/08/03 13:52:33;;;;;;;0.35;0.20;;;;;;;;;;5041610;28;20526;-79
2023/08/03 13:55:00;;;;;;;0.93;0.30;;;;;;;;;;5025225;28;20045;-79
2023/08/03 13:57:27;;;;;;;2.15;0.40;;;;;;;;;;5026092;28;20754;-80
2023/08/03 13:59:56;;;;;;;2.05;0.40;;;;;;;;;;5049052;28;20049;-79
2023/08/03 14:02:26;;;;;;;4.43;0.57;;;;;;;;;;5032892;28;20064;-79
2023/08/03 14:04:55;;;;;;;1.60;0.50;;;;;;;;;;5051356;28;20071;-81
2023/08/03 14:07:27;;;;;;;0.88;0.25;;;;;;;;;;5033702;28;20048;-79
2023/08/03 14:09:56;;;;;;;3.88;0.43;;;;;;;;;;5052351;28;20045;-80
2023/08/03 14:12:26;;;;;;;4.85;0.40;;;;;;;;;;5049881;28;20045;-79
2023/08/03 14:15:13;;;;;;;0.50;0.22;;;;;;;;;;5051284;28;20506;-80
2023/08/03 14:17:43;;;;;;;1.48;0.30;;;;;;;;;;5052075;28;20491;-78
2023/08/03 14:20:12;;;;;;;5.00;1.35;;;;;;;;;;5033109;28;20134;-79
2023/08/03 14:22:42;;;;;;;0.32;0.30;;;;;;;;;;5049097;28;20045;-80
2023/08/03 14:25:08;;;;;;;3.08;0.30;;;;;;;;;;5053020;28;20048;-80
2023/08/03 14:27:38;;;;;;;1.45;0.40;;;;;;;;;;5051929;28;20041;-81
2023/08/03 14:30:17;;;;;;;0.52;0.30;;;;;;;;;;5050180;28;20045;-81
2023/08/03 14:32:46;;;;;;;1.02;0.35;;;;;;;;;;5050714;28;20115;-80
2023/08/03 14:35:13;;;;;;;2.50;0.30;;;;;;;;;;5050804;28;20064;-79
2023/08/03 14:37:43;;;;;;;14.00;1.27;;;;;;;;;;5053634;28;20044;-79
2023/08/03 14:40:09;;;;;;;0.93;0.38;;;;;;;;;;5044813;28;20051;-80
2023/08/03 14:42:36;;;;;;;1.20;0.32;;;;;;;;;;5066626;28;20056;-80
2023/08/03 14:45:03;;;;;;;0.43;0.32;;;;;;;;;;5044538;28;20076;-79
2023/08/03 14:47:30;;;;;;;2.30;0.30;;;;;;;;;;5040735;28;20525;-81
2023/08/03 14:49:57;;;;;;;1.40;0.43;;;;;;;;;;5053222;28;20135;-80